Airfield :







YOU CAN JOIN US ON...

 
LOGIN :

Register | Disclaimer

   EN    FR    IT 

 









Legend :    VFR   Marginal VFR   IFR   Intensive IFR   Very Intensive IFR
Visi :
Ceiling :
>= 8 km
>= 3000ft
5 to 8 km
1000 to 3000 ft
1500m to 5 km
500 to 1000 ft
800 to 1500m
200 to 500 ft
< 800m
< 200 ft
Symbols :   Thunderstorms  Fog  Heavy snow  Heavy precipitations  Wind > 20 kt







- Airport Elevation : 930 ft


KEFK - Newport State

CURRENT METAR :
  • 262336Z AUTO 14004KT 10SM -RA SCT034 SCT070 OVC110 19/17 A3002 RMK AO2 T01880170

EXPIRED METARs :
  • 262316Z AUTO 28007G14KT 10SM -RA SCT031 BKN075 OVC100 20/17 A3001 RMK AO2 T01960170
  • 262256Z AUTO 27007KT 10SM BKN075 BKN085 23/17 A3001 RMK AO2 T02310170
  • 262237Z AUTO 22003KT 10SM SCT075 BKN085 24/17 A2999 RMK AO2 T02370166
  • 262216Z AUTO 00000KT 10SM CLR 25/16 A2998 RMK AO2 T02470160
  • 262156Z AUTO 20003KT 10SM CLR 25/16 A2997 RMK AO2 T02500158
  • 262136Z AUTO 00000KT 10SM CLR 25/15 A2997 RMK AO2 T02530151
  • 262117Z AUTO 00000KT 10SM CLR 27/16 A2997 RMK AO2 T02670161
  • 262056Z AUTO 20004KT 10SM CLR 27/16 A2997 RMK AO2 T02680156

TAF N/A
KZBW FIR / North America



MET'MAP, your aeronautical weather chart ! - Copyright ORBIFLY December 2007 - Disclaimer

ORBIFLY MET'MAP TEAM :

Programming & Development : Alexandra Zaïnal
Concept & Development : Baudouin d'Aumeries
Co-Development & Prog : Marc-Olivier Méhu
Technical & hardware support : Manuel Goepfert

Contact : metmap@orbifly.com




SOURCES & CREDITS :

   NOAA